createdAt,value
2018-04-01T00:01:57.142Z,90.63
2018-04-01T00:04:24.619Z,90.28
2018-04-01T00:06:53.136Z,90.62
2018-04-01T00:09:20.665Z,90.82
2018-04-01T00:11:48.144Z,90.79
2018-04-01T00:14:15.651Z,90.94
2018-04-01T00:16:43.132Z,90.74
2018-04-01T00:19:11.236Z,91.17
2018-04-01T00:21:38.733Z,91.00
2018-04-01T00:24:07.048Z,91.23
2018-04-01T00:26:34.617Z,91.43
2018-04-01T00:29:02.096Z,91.47
2018-04-01T00:31:29.601Z,91.07
2018-04-01T00:33:57.340Z,91.04
2018-04-01T00:36:24.813Z,90.93
2018-04-01T00:38:53.147Z,90.73
2018-04-01T00:41:20.641Z,90.79
2018-04-01T00:43:48.136Z,91.12
2018-04-01T00:46:15.668Z,90.86
2018-04-01T00:48:44.637Z,90.73
2018-04-01T00:51:12.972Z,90.98
2018-04-01T00:53:40.878Z,91.13
2018-04-01T00:56:08.369Z,91.13
2018-04-01T00:58:37.291Z,91.15
2018-04-01T01:01:04.867Z,91.40
2018-04-01T01:03:32.470Z,91.32
2018-04-01T01:05:59.960Z,91.48
2018-04-01T01:08:27.553Z,91.65
2018-04-01T01:10:55.249Z,91.96
2018-04-01T01:13:22.732Z,91.80
2018-04-01T01:15:51.007Z,91.98
2018-04-01T01:18:20.159Z,91.47
2018-04-01T01:20:47.628Z,91.62
2018-04-01T01:23:15.167Z,91.74
2018-04-01T01:25:42.675Z,91.36
2018-04-01T01:28:11.005Z,91.81
2018-04-01T01:30:38.487Z,91.79
2018-04-01T01:33:06.020Z,91.65
2018-04-01T01:35:34.050Z,91.18
2018-04-01T01:38:02.312Z,91.42
2018-04-01T01:40:29.796Z,91.89
2018-04-01T01:42:58.035Z,92.03
2018-04-01T01:45:25.542Z,91.92
2018-04-01T01:47:53.023Z,91.43
2018-04-01T01:50:21.223Z,91.79
2018-04-01T01:52:48.733Z,91.93
2018-04-01T01:55:16.625Z,91.30
2018-04-01T01:57:44.216Z,91.66
2018-04-01T02:00:12.004Z,91.81
2018-04-01T02:02:39.516Z,91.82
2018-04-01T02:05:07.017Z,91.53
2018-04-01T02:07:34.537Z,91.69
2018-04-01T02:10:02.083Z,91.79
2018-04-01T02:12:29.569Z,91.48
2018-04-01T02:14:57.113Z,91.54
2018-04-01T02:17:24.639Z,91.36
2018-04-01T02:19:52.124Z,91.87
2018-04-01T02:22:19.840Z,91.50
2018-04-01T02:24:47.309Z,91.52
2018-04-01T02:27:15.571Z,90.97
2018-04-01T02:29:43.097Z,90.79
2018-04-01T02:32:10.589Z,90.80
2018-04-01T02:34:38.078Z,91.05
2018-04-01T02:37:06.341Z,90.68
2018-04-01T02:39:34.691Z,90.97
2018-04-01T02:42:02.173Z,90.79
2018-04-01T02:44:29.985Z,90.78
2018-04-01T02:46:57.464Z,90.77
2018-04-01T02:49:25.030Z,90.53
2018-04-01T02:51:52.521Z,90.62
2018-04-01T02:54:20.000Z,90.56
2018-04-01T02:56:48.290Z,90.79
2018-04-01T02:59:15.766Z,90.64
2018-04-01T03:01:43.251Z,90.64
2018-04-01T03:04:10.766Z,90.49
2018-04-01T03:06:38.420Z,90.29
2018-04-01T03:09:05.918Z,90.48
2018-04-01T03:11:33.404Z,90.26
2018-04-01T03:14:01.673Z,90.24
2018-04-01T03:16:29.148Z,90.02
2018-04-01T03:18:56.652Z,89.81
2018-04-01T03:21:24.854Z,90.10
2018-04-01T03:23:52.340Z,90.33
2018-04-01T03:26:19.973Z,90.34
2018-04-01T03:28:47.670Z,90.21
2018-04-01T03:31:15.145Z,90.26
2018-04-01T03:33:43.429Z,90.51
2018-04-01T03:36:11.665Z,90.25
2018-04-01T03:38:39.184Z,90.48
2018-04-01T03:41:06.761Z,90.75
2018-04-01T03:43:34.251Z,91.03
2018-04-01T03:46:01.757Z,90.97
2018-04-01T03:48:29.252Z,90.94
2018-04-01T03:50:56.789Z,90.65
2018-04-01T03:53:24.368Z,90.46
2018-04-01T03:55:51.889Z,90.58
2018-04-01T03:58:20.146Z,90.63
2018-04-01T04:00:47.630Z,90.43
2018-04-01T04:03:15.135Z,90.88
2018-04-01T04:05:42.607Z,90.88
2018-04-01T04:08:10.100Z,90.53
2018-04-01T04:10:37.583Z,90.60
2018-04-01T04:13:05.169Z,90.46
2018-04-01T04:15:32.680Z,90.63
2018-04-01T04:18:00.168Z,90.66
2018-04-01T04:20:28.468Z,90.33
2018-04-01T04:22:55.970Z,90.64
2018-04-01T04:25:24.206Z,90.32
2018-04-01T04:27:51.704Z,90.10
2018-04-01T04:30:19.990Z,89.76
2018-04-01T04:32:48.229Z,89.82
2018-04-01T04:35:15.716Z,90.47
2018-04-01T04:37:43.998Z,90.75
2018-04-01T04:40:12.256Z,90.35
2018-04-01T04:42:39.771Z,90.50
2018-04-01T04:45:07.251Z,90.48
2018-04-01T04:47:34.741Z,90.15
2018-04-01T04:50:03.064Z,90.48
2018-04-01T04:52:30.537Z,90.34
2018-04-01T04:54:58.748Z,90.61
2018-04-01T04:57:27.024Z,90.43
2018-04-01T04:59:54.514Z,90.40
2018-04-01T05:02:21.997Z,90.51
2018-04-01T05:04:50.363Z,90.34
2018-04-01T05:07:17.984Z,90.42
2018-04-01T05:09:45.508Z,90.72
2018-04-01T05:12:13.007Z,90.70
2018-04-01T05:14:40.485Z,90.54
2018-04-01T05:17:08.180Z,90.23
2018-04-01T05:19:35.729Z,90.32
2018-04-01T05:22:03.199Z,90.59
2018-04-01T05:24:30.802Z,90.68
2018-04-01T05:26:58.301Z,90.34
2018-04-01T05:29:26.636Z,90.39
2018-04-01T05:31:54.158Z,89.79
2018-04-01T05:34:22.057Z,89.72
2018-04-01T05:36:49.549Z,90.05
2018-04-01T05:39:17.881Z,89.80
2018-04-01T05:41:46.080Z,89.95
2018-04-01T05:44:13.611Z,89.48
2018-04-01T05:46:41.268Z,89.56
2018-04-01T05:49:08.748Z,89.35
2018-04-01T05:51:36.239Z,89.23
2018-04-01T05:54:04.775Z,89.21
2018-04-01T05:56:32.260Z,89.12
2018-04-01T05:58:59.744Z,89.27
2018-04-01T06:01:28.015Z,89.07
2018-04-01T06:03:56.998Z,88.70
2018-04-01T06:06:24.491Z,88.50
2018-04-01T06:08:52.272Z,88.49
2018-04-01T06:11:19.756Z,89.47
2018-04-01T06:13:47.768Z,89.26
2018-04-01T06:16:16.111Z,88.91
2018-04-01T06:18:43.596Z,89.17
2018-04-01T06:21:11.081Z,89.19
2018-04-01T06:23:38.761Z,88.32
2018-04-01T06:26:06.809Z,88.46
2018-04-01T06:28:35.068Z,88.67
2018-04-01T06:31:02.566Z,88.82
2018-04-01T06:33:30.676Z,88.69
2018-04-01T06:35:58.168Z,89.28
2018-04-01T06:38:26.484Z,89.28
2018-04-01T06:40:54.478Z,89.45
2018-04-01T06:43:22.013Z,88.70
2018-04-01T06:45:49.752Z,88.27
2018-04-01T06:48:18.291Z,88.39
2018-04-01T06:50:45.829Z,88.27
2018-04-01T06:53:14.240Z,88.50
2018-04-01T06:55:42.139Z,88.43
2018-04-01T06:58:11.014Z,89.06
2018-04-01T07:00:38.508Z,89.07
2018-04-01T07:03:05.992Z,88.88
2018-04-01T07:05:33.472Z,89.27
2018-04-01T07:08:01.041Z,88.93
2018-04-01T07:10:28.566Z,88.89
2018-04-01T07:12:56.076Z,88.57
2018-04-01T07:15:23.558Z,88.46
2018-04-01T07:17:51.054Z,88.49
2018-04-01T07:20:18.618Z,88.86
2018-04-01T07:22:46.115Z,88.81
2018-04-01T07:25:13.596Z,89.11
2018-04-01T07:27:41.097Z,88.51
2018-04-01T07:30:08.639Z,88.56
2018-04-01T07:32:36.432Z,89.00
2018-04-01T07:35:03.895Z,88.67
2018-04-01T07:37:31.381Z,88.08
2018-04-01T07:39:59.005Z,88.18
2018-04-01T07:42:26.492Z,88.65
2018-04-01T07:44:53.978Z,88.48
2018-04-01T07:47:22.249Z,88.72
2018-04-01T07:49:50.524Z,88.63
2018-04-01T07:52:19.088Z,87.86
2018-04-01T07:54:46.603Z,88.16
2018-04-01T07:57:14.108Z,87.88
2018-04-01T07:59:41.575Z,88.12
2018-04-01T08:02:10.219Z,88.13
2018-04-01T08:04:38.265Z,87.92
2018-04-01T08:07:05.741Z,87.71
2018-04-01T08:09:33.327Z,87.77
2018-04-01T08:12:00.901Z,87.48
2018-04-01T08:14:28.396Z,86.91
2018-04-01T08:16:56.674Z,87.58
2018-04-01T08:19:24.929Z,86.96
2018-04-01T08:21:52.418Z,87.69
2018-04-01T08:24:20.300Z,87.62
2018-04-01T08:26:47.853Z,86.69
2018-04-01T08:29:15.329Z,86.91
2018-04-01T08:31:43.101Z,86.46
2018-04-01T08:34:10.589Z,87.38
2018-04-01T08:36:38.109Z,87.59
2018-04-01T08:39:05.636Z,88.17
2018-04-01T08:41:33.883Z,87.34
2018-04-01T08:44:01.363Z,87.86
2018-04-01T08:46:29.633Z,87.89
2018-04-01T08:48:57.103Z,87.26
2018-04-01T08:51:25.426Z,87.55
2018-04-01T08:53:52.904Z,86.81
2018-04-01T08:56:20.406Z,86.50
2018-04-01T08:58:49.058Z,86.65
2018-04-01T09:01:17.329Z,87.49
2018-04-01T09:03:44.804Z,86.69
2018-04-01T09:06:12.343Z,86.03
2018-04-01T09:08:39.842Z,85.75
2018-04-01T09:11:08.120Z,83.18
2018-04-01T09:13:36.372Z,84.25
2018-04-01T09:16:04.101Z,84.70
2018-04-01T09:18:31.612Z,83.95
2018-04-01T09:20:59.089Z,84.08
2018-04-01T09:23:26.975Z,85.28
2018-04-01T09:25:54.450Z,83.62
2018-04-01T09:28:21.941Z,84.11
2018-04-01T09:30:49.427Z,83.84
2018-04-01T09:33:17.723Z,84.10
2018-04-01T09:35:45.218Z,83.86
2018-04-01T09:38:13.343Z,83.96
2018-04-01T09:40:40.861Z,84.65
2018-04-01T09:43:08.429Z,84.65
2018-04-01T09:45:35.900Z,84.51
2018-04-01T09:48:03.551Z,83.67
2018-04-01T09:50:31.034Z,83.34
2018-04-01T09:52:59.997Z,83.73
2018-04-01T09:55:27.521Z,83.31
2018-04-01T09:57:55.181Z,82.18
2018-04-01T10:00:25.567Z,82.34
2018-04-01T10:02:54.619Z,80.88
2018-04-01T10:05:22.889Z,82.13
2018-04-01T10:07:51.190Z,83.80
2018-04-01T10:10:19.471Z,81.46
2018-04-01T10:12:47.966Z,81.60
2018-04-01T10:15:16.327Z,82.25
2018-04-01T10:17:45.359Z,82.60
2018-04-01T10:20:16.156Z,82.61
2018-04-01T10:22:45.137Z,81.19
2018-04-01T10:25:13.416Z,80.08
2018-04-01T10:27:41.797Z,80.35
2018-04-01T10:30:10.057Z,80.54
2018-04-01T10:32:38.369Z,81.00
2018-04-01T10:35:06.630Z,81.94
2018-04-01T10:37:34.901Z,80.60
2018-04-01T10:40:09.917Z,77.79
2018-04-01T10:42:39.389Z,78.04
2018-04-01T10:45:10.691Z,78.53
2018-04-01T10:47:39.701Z,78.84
2018-04-01T10:50:08.056Z,79.35
2018-04-01T10:52:36.556Z,79.58
2018-04-01T10:55:04.079Z,79.51
2018-04-01T10:57:33.093Z,81.29
2018-04-01T11:00:00.655Z,81.60
2018-04-01T11:02:29.172Z,82.59
2018-04-01T11:04:56.669Z,82.72
2018-04-01T11:07:25.289Z,82.92
2018-04-01T11:09:52.801Z,83.40
2018-04-01T11:12:20.276Z,81.65
2018-04-01T11:14:48.652Z,81.95
2018-04-01T11:17:17.315Z,82.18
2018-04-01T11:19:44.802Z,80.28
2018-04-01T11:22:13.049Z,80.12
2018-04-01T11:24:40.543Z,76.48
2018-04-01T11:27:08.041Z,78.09
2018-04-01T11:29:36.835Z,77.52
2018-04-01T11:32:05.187Z,78.29
2018-04-01T11:34:32.803Z,79.68
2018-04-01T11:37:00.328Z,80.81
2018-04-01T11:39:27.812Z,80.97
2018-04-01T11:41:55.293Z,81.79
2018-04-01T11:44:23.537Z,82.46
2018-04-01T11:46:51.393Z,81.58
2018-04-01T11:49:18.957Z,82.19
2018-04-01T11:51:46.424Z,81.24
2018-04-01T11:54:14.070Z,81.11
2018-04-01T11:56:41.553Z,81.58
2018-04-01T11:59:09.016Z,80.48
2018-04-01T12:01:36.516Z,80.71
2018-04-01T12:04:04.133Z,80.55
2018-04-01T12:06:31.660Z,80.90
2018-04-01T12:08:59.203Z,80.25
2018-04-01T12:11:26.684Z,80.21
2018-04-01T12:13:54.155Z,80.41
2018-04-01T12:16:21.659Z,80.12
2018-04-01T12:18:49.999Z,80.93
2018-04-01T12:21:17.492Z,80.43
2018-04-01T12:23:45.203Z,80.67
2018-04-01T12:26:12.672Z,80.36
2018-04-01T12:28:40.939Z,77.93
2018-04-01T12:31:08.527Z,76.79
2018-04-01T12:33:36.044Z,77.02
2018-04-01T12:36:03.759Z,76.37
2018-04-01T12:38:31.260Z,75.72
2018-04-01T12:40:58.736Z,76.90
2018-04-01T12:43:26.312Z,76.15
2018-04-01T12:45:53.827Z,75.10
2018-04-01T12:48:22.692Z,74.85
2018-04-01T12:50:50.213Z,75.78
2018-04-01T12:53:17.718Z,76.49
2018-04-01T12:55:45.207Z,76.95
2018-04-01T12:58:13.620Z,74.58
2018-04-01T13:00:41.099Z,74.00
2018-04-01T13:03:08.648Z,73.12
2018-04-01T13:05:36.140Z,74.01
2018-04-01T13:08:05.016Z,72.66
2018-04-01T13:10:32.546Z,70.06
2018-04-01T13:13:00.263Z,71.23
2018-04-01T13:15:27.730Z,72.32
2018-04-01T13:17:56.386Z,70.13
2018-04-01T13:20:24.096Z,67.52
2018-04-01T13:22:51.568Z,67.15
2018-04-01T13:25:19.060Z,64.09
2018-04-01T13:27:46.568Z,65.07
2018-04-01T13:30:14.044Z,64.13
2018-04-01T13:32:41.605Z,62.90
2018-04-01T13:35:09.183Z,59.89
2018-04-01T13:37:37.602Z,52.88
2018-04-01T13:40:05.343Z,50.17
2018-04-01T13:42:32.850Z,55.69
2018-04-01T13:45:01.104Z,58.59
2018-04-01T13:47:28.616Z,60.91
2018-04-01T13:49:56.103Z,62.48
2018-04-01T13:52:23.576Z,60.64
2018-04-01T13:54:51.301Z,61.30
2018-04-01T13:57:18.803Z,62.45
2018-04-01T13:59:46.280Z,62.55
2018-04-01T14:02:14.539Z,63.89
2018-04-01T14:04:42.066Z,62.38
2018-04-01T14:07:09.524Z,61.89
2018-04-01T14:09:37.780Z,62.78
2018-04-01T14:12:05.277Z,62.82
2018-04-01T14:14:32.768Z,63.28
2018-04-01T14:17:01.121Z,62.58
2018-04-01T14:19:28.643Z,63.27
2018-04-01T14:21:56.133Z,63.71
2018-04-01T14:24:23.600Z,63.83
2018-04-01T14:26:52.020Z,63.97
2018-04-01T14:29:19.511Z,62.91
2018-04-01T14:31:47.021Z,63.00
2018-04-01T14:34:15.377Z,63.64
2018-04-01T14:36:42.960Z,62.55
2018-04-01T14:39:10.457Z,61.54
2018-04-01T14:41:38.705Z,60.77
2018-04-01T14:44:07.353Z,59.21
2018-04-01T14:46:34.948Z,61.35
2018-04-01T14:49:03.211Z,62.82
2018-04-01T14:51:30.709Z,64.04
2018-04-01T14:53:58.180Z,65.33
2018-04-01T14:56:25.748Z,65.86
2018-04-01T14:58:53.297Z,66.83
2018-04-01T15:01:20.772Z,66.00
2018-04-01T15:03:48.347Z,65.06
2018-04-01T15:06:16.445Z,65.85
2018-04-01T15:08:43.956Z,64.40
2018-04-01T15:11:11.433Z,64.25
2018-04-01T15:13:38.947Z,62.65
2018-04-01T15:16:07.263Z,62.21
2018-04-01T15:18:35.447Z,61.60
2018-04-01T15:21:03.053Z,62.00
2018-04-01T15:23:31.380Z,62.24
2018-04-01T15:25:58.870Z,61.70
2018-04-01T15:28:26.381Z,60.54
2018-04-01T15:30:54.781Z,57.16
2018-04-01T15:33:22.260Z,57.04
2018-04-01T15:35:49.762Z,59.25
2018-04-01T15:38:18.255Z,60.32
2018-04-01T15:40:45.752Z,61.38
2018-04-01T15:43:13.239Z,58.84
2018-04-01T15:45:40.738Z,58.25
2018-04-01T15:48:08.952Z,60.07
2018-04-01T15:50:36.732Z,61.09
2018-04-01T15:53:04.205Z,59.22
2018-04-01T15:55:32.472Z,59.64
2018-04-01T15:57:59.975Z,60.76
2018-04-01T16:00:28.417Z,62.20
2018-04-01T16:02:55.907Z,62.55
2018-04-01T16:05:23.410Z,63.47
2018-04-01T16:07:50.902Z,63.37
2018-04-01T16:10:19.787Z,63.97
2018-04-01T16:12:47.307Z,64.79
2018-04-01T16:15:14.996Z,62.17
2018-04-01T16:17:42.485Z,60.60
2018-04-01T16:20:11.168Z,57.18
2018-04-01T16:22:39.486Z,55.88
2018-04-01T16:25:07.040Z,57.60
2018-04-01T16:27:35.045Z,57.49
2018-04-01T16:30:02.561Z,57.59
2018-04-01T16:32:31.000Z,59.26
2018-04-01T16:34:59.256Z,60.69
2018-04-01T16:37:26.788Z,62.23
2018-04-01T16:39:55.147Z,62.21
2018-04-01T16:42:22.637Z,62.78
2018-04-01T16:44:50.508Z,62.67
2018-04-01T16:47:18.270Z,63.85
2018-04-01T16:49:45.867Z,64.80
2018-04-01T16:52:13.348Z,65.36
2018-04-01T16:54:41.690Z,66.82
2018-04-01T16:57:09.227Z,66.84
2018-04-01T16:59:37.160Z,67.39
2018-04-01T17:02:05.494Z,68.63
2018-04-01T17:04:32.977Z,68.64
2018-04-01T17:07:00.479Z,69.01
2018-04-01T17:09:28.155Z,69.64
2018-04-01T17:11:55.580Z,69.98
2018-04-01T17:14:23.871Z,70.52
2018-04-01T17:16:51.359Z,71.01
2018-04-01T17:19:18.833Z,71.05
2018-04-01T17:21:47.457Z,71.31
2018-04-01T17:24:16.522Z,71.75
2018-04-01T17:26:44.020Z,71.98
2018-04-01T17:29:13.773Z,71.81
2018-04-01T17:31:41.257Z,72.27
2018-04-01T17:34:08.749Z,72.55
2018-04-01T17:36:37.021Z,73.16
2018-04-01T17:39:05.664Z,73.59
2018-04-01T17:41:33.274Z,73.95
2018-04-01T17:44:01.751Z,73.94
2018-04-01T17:46:30.090Z,74.07
2018-04-01T17:48:57.884Z,74.24
2018-04-01T17:51:25.765Z,74.63
2018-04-01T17:53:54.025Z,74.86
2018-04-01T17:56:21.495Z,75.13
2018-04-01T17:58:49.802Z,75.31
2018-04-01T18:01:17.294Z,75.57
2018-04-01T18:03:45.350Z,75.69
2018-04-01T18:06:13.582Z,75.76
2018-04-01T18:08:43.588Z,76.41
2018-04-01T18:11:11.111Z,76.42
2018-04-01T18:13:39.487Z,76.75
2018-04-01T18:16:06.989Z,76.70
2018-04-01T18:18:34.509Z,76.78
2018-04-01T18:21:02.017Z,76.97
2018-04-01T18:23:30.288Z,77.22
2018-04-01T18:25:57.781Z,77.43
2018-04-01T18:28:25.276Z,77.46
2018-04-01T18:30:52.792Z,77.51
2018-04-01T18:33:20.306Z,77.76
2018-04-01T18:35:47.790Z,77.93
2018-04-01T18:38:16.246Z,78.18
2018-04-01T18:40:43.749Z,78.22
2018-04-01T18:43:12.420Z,78.48
2018-04-01T18:45:43.191Z,78.54
2018-04-01T18:48:11.490Z,78.79
2018-04-01T18:50:39.204Z,79.12
2018-04-01T18:53:07.032Z,79.27
2018-04-01T18:55:34.513Z,79.41
2018-04-01T18:58:02.037Z,79.31
2018-04-01T19:00:29.729Z,79.50
2018-04-01T19:02:57.199Z,79.66
2018-04-01T19:05:24.677Z,80.00
2018-04-01T19:07:55.497Z,80.11
2018-04-01T19:10:23.284Z,80.13
2018-04-01T19:12:51.720Z,80.07
2018-04-01T19:15:20.629Z,80.06
2018-04-01T19:17:51.481Z,79.83
2018-04-01T19:20:19.809Z,80.25
2018-04-01T19:22:48.139Z,80.20
2018-04-01T19:25:17.689Z,80.27
2018-04-01T19:27:45.958Z,80.07
2018-04-01T19:30:14.260Z,80.54
2018-04-01T19:32:42.829Z,80.45
2018-04-01T19:35:11.116Z,80.57
2018-04-01T19:37:40.274Z,80.70
2018-04-01T19:40:10.677Z,80.74
2018-04-01T19:42:39.056Z,80.92
2018-04-01T19:45:08.004Z,81.03
2018-04-01T19:47:36.457Z,81.17
2018-04-01T19:50:05.492Z,81.10
2018-04-01T19:52:35.025Z,81.28
2018-04-01T19:55:05.793Z,81.53
2018-04-01T19:57:34.941Z,81.35
2018-04-01T20:00:04.188Z,81.46
2018-04-01T20:02:34.131Z,81.39
2018-04-01T20:05:05.605Z,81.46
2018-04-01T20:07:34.566Z,81.29
2018-04-01T20:10:02.849Z,81.22
2018-04-01T20:12:31.829Z,81.21
2018-04-01T20:15:00.881Z,80.93
2018-04-01T20:17:29.159Z,81.26
2018-04-01T20:19:57.660Z,81.15
2018-04-01T20:22:26.708Z,80.90
2018-04-01T20:24:56.126Z,81.10
2018-04-01T20:27:24.506Z,81.29
2018-04-01T20:29:52.772Z,80.96
2018-04-01T20:32:21.076Z,80.93
2018-04-01T20:34:49.353Z,81.13
2018-04-01T20:37:17.628Z,80.99
2018-04-01T20:39:46.955Z,81.08
2018-04-01T20:42:16.648Z,80.92
2018-04-01T20:44:44.950Z,81.01
2018-04-01T20:47:13.262Z,81.03
2018-04-01T20:49:42.624Z,80.91
2018-04-01T20:52:11.664Z,80.82
2018-04-01T20:54:40.387Z,81.09
2018-04-01T20:57:10.738Z,81.28
2018-04-01T20:59:39.926Z,81.29
2018-04-01T21:02:10.356Z,81.13
2018-04-01T21:04:38.633Z,81.37
2018-04-01T21:07:06.944Z,81.48
2018-04-01T21:09:36.189Z,81.50
2018-04-01T21:12:04.470Z,81.76
2018-04-01T21:14:33.186Z,81.73
2018-04-01T21:17:01.523Z,81.81
2018-04-01T21:19:30.469Z,82.10
2018-04-01T21:21:59.765Z,82.16
2018-04-01T21:24:28.884Z,82.03
2018-04-01T21:26:57.882Z,82.26
2018-04-01T21:29:26.205Z,82.30
2018-04-01T21:31:54.463Z,82.46
2018-04-01T21:34:23.375Z,82.65
2018-04-01T21:36:51.719Z,82.35
2018-04-01T21:39:20.016Z,82.52
2018-04-01T21:41:48.341Z,82.66
2018-04-01T21:44:17.380Z,82.68
2018-04-01T21:46:45.659Z,82.77
2018-04-01T21:49:14.397Z,82.75
2018-04-01T21:51:43.041Z,82.85
2018-04-01T21:54:13.030Z,82.90
2018-04-01T21:56:41.580Z,83.06
2018-04-01T21:59:09.827Z,83.13
2018-04-01T22:01:38.421Z,83.18
2018-04-01T22:04:06.716Z,83.12
2018-04-01T22:06:35.147Z,83.09
2018-04-01T22:09:03.424Z,83.41
2018-04-01T22:11:32.525Z,83.43
2018-04-01T22:14:01.792Z,83.82
2018-04-01T22:16:30.852Z,83.85
2018-04-01T22:18:59.577Z,83.63
2018-04-01T22:21:28.617Z,83.77
2018-04-01T22:23:57.458Z,83.93
2018-04-01T22:26:26.685Z,84.30
2018-04-01T22:28:54.974Z,84.36
2018-04-01T22:31:24.208Z,84.31
2018-04-01T22:33:52.432Z,84.60
2018-04-01T22:36:20.708Z,84.38
2018-04-01T22:38:49.008Z,84.57
2018-04-01T22:41:17.287Z,84.64
2018-04-01T22:43:45.597Z,85.05
2018-04-01T22:46:13.950Z,84.95
2018-04-01T22:48:43.576Z,84.88
2018-04-01T22:51:12.405Z,85.09
2018-04-01T22:53:41.445Z,85.45
2018-04-01T22:56:10.049Z,85.55
2018-04-01T22:58:38.512Z,85.50
2018-04-01T23:01:08.436Z,85.66
2018-04-01T23:03:36.721Z,85.75
2018-04-01T23:06:05.108Z,85.81
2018-04-01T23:08:33.732Z,85.92
2018-04-01T23:11:02.885Z,86.07
2018-04-01T23:13:31.167Z,86.06
2018-04-01T23:15:59.988Z,86.18
2018-04-01T23:18:30.174Z,86.30
2018-04-01T23:20:58.449Z,86.35
2018-04-01T23:23:26.740Z,86.85
2018-04-01T23:25:55.364Z,86.73
2018-04-01T23:28:24.422Z,86.90
2018-04-01T23:30:52.692Z,86.97
2018-04-01T23:33:21.125Z,87.41
2018-04-01T23:35:49.417Z,87.67
2018-04-01T23:38:18.651Z,87.37
2018-04-01T23:40:47.026Z,87.31
2018-04-01T23:43:15.327Z,87.68
2018-04-01T23:45:44.705Z,87.61
2018-04-01T23:48:12.991Z,87.88
2018-04-01T23:50:42.193Z,88.04
2018-04-01T23:53:10.673Z,88.24
2018-04-01T23:55:38.957Z,88.43
2018-04-01T23:58:07.859Z,88.50
